Time;durP1;ratioP1;P1;durP2;ratioP2;P2;SDS_P1;SDS_P2;PMS_P1;PMS_P2;Temp;Humidity;BMP_temperature;BMP_pressure;BME280_temperature;BME280_humidity;BME280_pressure;Samples;Min_cycle;Max_cycle;Signal;HPM_P1;HPM_P2
2023/01/08 05:03:36;;;;;;;5.75;1.50;;;13.50;68.10;;;;;;5021440;23;20078;-74
2023/01/08 05:06:02;;;;;;;8.43;1.75;;;13.60;68.40;;;;;;4918372;29;20447;-75
2023/01/08 05:08:27;;;;;;;4.75;1.23;;;13.60;68.50;;;;;;4918385;29;20044;-72
2023/01/08 05:10:53;;;;;;;10.05;1.38;;;13.60;68.60;;;;;;4918694;29;20076;-70
2023/01/08 05:13:19;;;;;;;5.30;1.33;;;13.60;68.80;;;;;;4917349;29;20510;-71
2023/01/08 05:15:44;;;;;;;7.53;1.05;;;13.70;68.70;;;;;;4917926;29;20051;-72
2023/01/08 05:18:13;;;;;;;5.57;0.98;;;13.70;68.70;;;;;;4918287;29;20048;-76
2023/01/08 05:20:39;;;;;;;6.20;1.27;;;13.70;69.30;;;;;;4917552;29;20096;-75
2023/01/08 05:23:04;;;;;;;9.43;1.75;;;13.70;69.40;;;;;;4918164;29;20048;-74
2023/01/08 05:25:30;;;;;;;12.98;1.45;;;13.80;69.70;;;;;;4918509;29;20399;-74
2023/01/08 05:27:56;;;;;;;17.83;2.50;;;13.90;70.10;;;;;;4918126;29;20052;-75
2023/01/08 05:30:22;;;;;;;20.90;1.92;;;14.10;70.10;;;;;;4921952;29;20131;-72
2023/01/08 05:32:47;;;;;;;10.30;1.33;;;14.30;70.30;;;;;;4904887;29;20044;-74
2023/01/08 05:35:13;;;;;;;7.60;1.13;;;14.40;70.30;;;;;;4921856;29;20059;-76
2023/01/08 05:37:39;;;;;;;11.90;1.65;;;14.50;70.30;;;;;;4921469;29;20044;-71
2023/01/08 05:40:05;;;;;;;12.20;1.65;;;14.50;70.40;;;;;;4921640;29;20048;-74
2023/01/08 05:42:33;;;;;;;11.40;1.48;;;14.60;70.50;;;;;;4920410;29;20059;-75
2023/01/08 05:44:59;;;;;;;10.77;1.50;;;14.70;70.70;;;;;;4921215;29;20079;-75
2023/01/08 05:47:29;;;;;;;10.13;1.73;;;14.70;70.80;;;;;;4921073;29;20079;-73
2023/01/08 05:49:54;;;;;;;16.38;2.20;;;14.80;71.00;;;;;;4921558;29;20174;-73
2023/01/08 05:52:20;;;;;;;19.45;2.10;;;14.90;71.20;;;;;;4921007;29;20087;-71
2023/01/08 05:54:46;;;;;;;17.15;2.30;;;14.90;71.50;;;;;;4921019;29;20464;-73
2023/01/08 05:57:11;;;;;;;16.55;2.65;;;15.00;71.90;;;;;;4921411;29;20060;-74
2023/01/08 05:59:37;;;;;;;13.35;1.73;;;15.00;72.00;;;;;;4921971;29;20432;-73
2023/01/08 06:02:03;;;;;;;10.88;1.67;;;15.00;72.10;;;;;;4921130;29;20059;-72
2023/01/08 06:04:28;;;;;;;11.45;1.95;;;15.10;72.40;;;;;;4920824;29;20124;-73
2023/01/08 06:06:54;;;;;;;13.98;2.00;;;15.20;72.50;;;;;;4921273;29;20062;-74
2023/01/08 06:09:20;;;;;;;20.65;2.25;;;15.30;72.50;;;;;;4920972;29;20429;-74
2023/01/08 06:11:46;;;;;;;18.20;2.47;;;15.30;72.50;;;;;;4904621;29;20048;-74
2023/01/08 06:14:13;;;;;;;18.98;2.20;;;15.40;72.50;;;;;;4920478;29;20360;-74
2023/01/08 06:16:39;;;;;;;23.58;2.00;;;15.60;72.40;;;;;;4920678;29;20048;-73
2023/01/08 06:19:04;;;;;;;19.90;1.98;;;15.70;72.20;;;;;;4921364;29;20052;-75
2023/01/08 06:21:30;;;;;;;19.52;2.38;;;15.70;72.10;;;;;;4920166;29;20048;-77
2023/01/08 06:23:56;;;;;;;17.60;2.13;;;15.70;71.90;;;;;;4920371;29;20091;-75
2023/01/08 06:26:21;;;;;;;22.77;2.90;;;15.80;71.90;;;;;;4920874;29;20123;-72
2023/01/08 06:28:47;;;;;;;44.28;4.30;;;15.90;71.80;;;;;;4918990;29;20055;-76
2023/01/08 06:31:13;;;;;;;41.58;4.93;;;16.00;71.90;;;;;;4919762;29;20032;-71
2023/01/08 06:33:39;;;;;;;32.00;4.47;;;16.00;71.70;;;;;;4919143;29;20040;-73
2023/01/08 06:36:05;;;;;;;27.60;4.55;;;16.00;71.70;;;;;;4919896;29;20048;-71
2023/01/08 06:38:32;;;;;;;37.90;4.80;;;16.00;71.80;;;;;;4920120;29;20187;-72
2023/01/08 06:41:01;;;;;;;28.60;3.13;;;16.00;71.60;;;;;;4919602;29;20075;-71
2023/01/08 06:43:27;;;;;;;33.00;4.13;;;15.80;71.40;;;;;;4904148;29;20390;-71
2023/01/08 06:45:54;;;;;;;29.27;4.50;;;15.90;71.80;;;;;;4903448;29;20127;-71
2023/01/08 06:48:20;;;;;;;26.60;3.72;;;16.00;71.90;;;;;;4920239;29;20063;-71
2023/01/08 06:50:45;;;;;;;18.08;3.30;;;16.00;71.90;;;;;;4920561;29;20040;-71
2023/01/08 06:53:11;;;;;;;17.92;2.60;;;16.00;71.90;;;;;;4920292;29;20044;-73
2023/01/08 06:55:37;;;;;;;18.98;2.78;;;16.00;71.90;;;;;;4920157;29;20048;-72
2023/01/08 06:58:03;;;;;;;26.17;2.97;;;16.00;71.90;;;;;;4919432;29;20119;-71
2023/01/08 07:00:28;;;;;;;35.42;3.40;;;16.00;71.80;;;;;;4915088;29;20056;-80
2023/01/08 07:02:54;;;;;;;21.67;2.72;;;16.00;71.50;;;;;;4900079;29;20135;-80
2023/01/08 07:05:21;;;;;;;25.17;2.92;;;16.10;71.60;;;;;;4900196;29;20044;-78
2023/01/08 07:07:47;;;;;;;26.38;2.53;;;16.00;71.50;;;;;;4918701;29;20044;-74
2023/01/08 07:10:12;;;;;;;17.25;2.30;;;16.10;71.30;;;;;;4919691;29;20119;-74
2023/01/08 07:12:38;;;;;;;22.55;2.83;;;16.10;70.80;;;;;;4918819;29;20119;-72
2023/01/08 07:15:05;;;;;;;8.73;1.48;;;16.10;70.50;;;;;;4919234;29;20119;-74
2023/01/08 07:17:32;;;;;;;12.55;1.95;;;16.10;69.90;;;;;;4919490;29;20107;-77
2023/01/08 07:19:58;;;;;;;17.63;2.38;;;16.00;69.30;;;;;;4919524;29;20123;-71
2023/01/08 07:22:24;;;;;;;11.80;2.22;;;16.10;68.80;;;;;;4919177;29;20112;-73
2023/01/08 07:24:51;;;;;;;14.98;1.92;;;16.00;68.20;;;;;;4919520;29;20039;-71
2023/01/08 07:27:16;;;;;;;15.32;2.63;;;16.00;67.60;;;;;;4919191;29;20052;-71
2023/01/08 07:29:42;;;;;;;9.68;1.88;;;15.90;66.70;;;;;;4919556;29;20048;-71
2023/01/08 07:32:08;;;;;;;10.65;1.98;;;15.70;65.40;;;;;;4918736;29;20071;-71
2023/01/08 07:34:33;;;;;;;21.27;2.50;;;15.60;66.10;;;;;;4919432;29;20139;-72
2023/01/08 07:37:00;;;;;;;11.60;2.15;;;15.60;66.40;;;;;;4918579;29;20180;-71
2023/01/08 07:39:25;;;;;;;11.88;1.60;;;15.70;66.60;;;;;;4915624;29;20048;-71
2023/01/08 07:41:51;;;;;;;9.70;1.42;;;15.80;66.70;;;;;;4902308;29;20062;-70
2023/01/08 07:44:17;;;;;;;12.80;1.73;;;15.80;66.80;;;;;;4911888;29;20088;-72
2023/01/08 07:46:44;;;;;;;11.55;2.00;;;15.80;66.90;;;;;;4929148;29;20052;-70
2023/01/08 07:49:10;;;;;;;13.65;1.55;;;15.90;67.10;;;;;;4918991;29;20048;-71
2023/01/08 07:51:36;;;;;;;14.40;1.85;;;15.90;67.20;;;;;;4930891;29;20122;-70
2023/01/08 07:54:02;;;;;;;10.98;1.58;;;16.00;67.30;;;;;;4937899;29;20417;-71
2023/01/08 07:56:28;;;;;;;28.08;2.53;;;16.00;67.30;;;;;;4921415;29;20052;-70
2023/01/08 07:58:53;;;;;;;32.95;3.72;;;16.10;68.10;;;;;;4919144;29;20131;-70
2023/01/08 08:01:19;;;;;;;29.67;4.15;;;16.10;67.60;;;;;;4918434;29;20115;-71
2023/01/08 08:03:45;;;;;;;26.02;2.67;;;16.10;67.70;;;;;;4918811;29;20056;-70
2023/01/08 08:06:11;;;;;;;24.92;3.25;;;16.10;67.70;;;;;;4917986;29;20111;-75
2023/01/08 08:08:36;;;;;;;25.17;3.10;;;16.10;67.70;;;;;;4918992;29;20498;-74
2023/01/08 08:11:02;;;;;;;28.42;3.88;;;16.10;68.20;;;;;;4919079;29;20448;-74
2023/01/08 08:13:28;;;;;;;17.00;2.35;;;16.10;68.20;;;;;;4918656;29;20063;-76
2023/01/08 08:15:54;;;;;;;19.40;2.70;;;16.10;68.20;;;;;;4917665;29;20055;-72
2023/01/08 08:18:20;;;;;;;19.15;2.15;;;16.10;68.00;;;;;;4918295;29;20103;-73
2023/01/08 08:20:46;;;;;;;13.98;2.05;;;16.10;68.00;;;;;;4918568;29;20055;-72
2023/01/08 08:23:13;;;;;;;21.95;2.33;;;16.10;68.10;;;;;;4918023;29;20052;-74
2023/01/08 08:25:42;;;;;;;24.27;2.67;;;16.10;68.10;;;;;;4902160;29;20055;-73
2023/01/08 08:28:10;;;;;;;13.65;2.40;;;16.10;68.00;;;;;;4902367;29;20467;-75
2023/01/08 08:30:36;;;;;;;13.02;1.85;;;16.10;68.10;;;;;;4918005;29;20495;-73
2023/01/08 08:33:04;;;;;;;11.38;1.33;;;16.20;68.00;;;;;;4901931;29;20131;-72
2023/01/08 08:35:31;;;;;;;8.32;1.80;;;16.00;66.80;;;;;;4917405;29;20506;-72
2023/01/08 08:37:58;;;;;;;12.40;2.78;;;16.00;68.10;;;;;;4902072;29;20119;-74
2023/01/08 08:40:24;;;;;;;7.80;1.58;;;16.00;68.30;;;;;;4899432;29;20040;-73
2023/01/08 08:43:02;;;;;;;11.30;2.13;;;16.00;68.30;;;;;;4899632;29;20059;-74
2023/01/08 08:45:28;;;;;;;11.27;2.25;;;16.00;68.30;;;;;;4898868;29;20059;-72
2023/01/08 08:47:54;;;;;;;17.92;1.92;;;16.00;68.20;;;;;;4899919;29;20162;-75
2023/01/08 08:50:20;;;;;;;13.98;2.25;;;16.10;68.20;;;;;;4902738;29;20475;-74
2023/01/08 08:52:47;;;;;;;13.68;1.95;;;16.10;68.10;;;;;;4918038;29;20055;-73
2023/01/08 08:55:16;;;;;;;16.77;2.30;;;16.10;68.10;;;;;;4918775;29;20048;-74
2023/01/08 08:57:43;;;;;;;34.47;3.70;;;16.10;68.20;;;;;;4902027;29;20052;-75
2023/01/08 09:00:09;;;;;;;16.75;1.92;;;16.10;68.10;;;;;;4919248;29;20096;-75
2023/01/08 09:02:35;;;;;;;18.42;2.40;;;15.90;67.10;;;;;;4902195;29;20064;-76
2023/01/08 09:05:00;;;;;;;22.77;2.35;;;15.60;67.40;;;;;;4922223;29;20067;-78
2023/01/08 09:07:26;;;;;;;11.85;1.60;;;15.70;68.30;;;;;;4922530;29;20448;-75
2023/01/08 09:09:52;;;;;;;12.68;1.67;;;15.50;67.10;;;;;;4905258;29;20055;-77
2023/01/08 09:12:17;;;;;;;18.55;2.10;;;15.50;68.20;;;;;;4904842;29;20124;-76
2023/01/08 09:14:44;;;;;;;18.55;2.58;;;15.60;68.80;;;;;;4905140;29;20083;-74
2023/01/08 09:17:09;;;;;;;17.38;2.28;;;15.60;68.70;;;;;;4921794;29;20099;-74
2023/01/08 09:19:35;;;;;;;16.52;2.78;;;15.70;68.10;;;;;;4921771;29;20056;-71
2023/01/08 09:22:01;;;;;;;22.23;3.03;;;15.70;67.80;;;;;;4921040;29;20055;-72
2023/01/08 09:24:31;;;;;;;25.33;3.28;;;15.80;67.40;;;;;;4921665;29;20084;-71
2023/01/08 09:26:57;;;;;;;13.32;2.38;;;15.90;67.30;;;;;;4922214;29;20370;-71
2023/01/08 09:29:23;;;;;;;12.52;2.65;;;16.00;67.30;;;;;;4921735;29;20044;-74
2023/01/08 09:31:48;;;;;;;13.13;2.70;;;16.00;67.30;;;;;;4922029;29;20143;-72
2023/01/08 09:34:14;;;;;;;17.75;2.30;;;16.10;67.40;;;;;;4921755;29;20431;-73
2023/01/08 09:36:40;;;;;;;14.38;2.22;;;16.10;67.40;;;;;;4921533;29;20060;-72
2023/01/08 09:39:06;;;;;;;17.02;3.05;;;16.10;67.40;;;;;;4921776;29;20044;-70
2023/01/08 09:41:34;;;;;;;16.65;1.85;;;16.20;67.60;;;;;;4921668;29;20474;-72
2023/01/08 09:44:03;;;;;;;13.93;2.28;;;16.20;67.70;;;;;;4921575;29;20100;-73
2023/01/08 09:46:30;;;;;;;17.15;2.13;;;16.30;67.80;;;;;;4920422;29;20127;-73
2023/01/08 09:49:05;;;;;;;13.65;2.30;;;16.30;67.80;;;;;;4920857;29;20048;-72
2023/01/08 09:51:34;;;;;;;10.23;1.63;;;16.30;67.80;;;;;;4919732;29;20040;-73
2023/01/08 09:54:01;;;;;;;10.50;1.27;;;16.30;67.90;;;;;;4921139;29;20056;-73
2023/01/08 09:56:28;;;;;;;10.02;1.35;;;16.30;67.90;;;;;;4921633;29;20328;-73
2023/01/08 09:58:58;;;;;;;15.05;2.33;;;16.30;67.90;;;;;;4921052;29;20044;-72
2023/01/08 10:01:29;;;;;;;9.25;1.67;;;16.30;67.80;;;;;;4921255;29;20059;-73
2023/01/08 10:04:03;;;;;;;19.20;2.10;;;16.30;67.30;;;;;;4920306;29;20132;-76
2023/01/08 10:06:30;;;;;;;12.30;1.42;;;16.30;67.20;;;;;;4920936;29;20500;-72
2023/01/08 10:08:57;;;;;;;10.57;1.45;;;16.30;67.40;;;;;;4903745;29;20076;-74
2023/01/08 10:11:25;;;;;;;5.78;1.33;;;16.30;67.70;;;;;;4919820;29;20044;-72
2023/01/08 10:13:57;;;;;;;18.55;1.55;;;16.30;67.90;;;;;;4920516;29;20102;-73
2023/01/08 10:16:32;;;;;;;11.13;2.05;;;16.30;68.10;;;;;;4919866;29;20131;-71
2023/01/08 10:18:59;;;;;;;14.45;2.13;;;16.30;68.40;;;;;;4920639;29;20056;-74
2023/01/08 10:21:36;;;;;;;10.80;1.30;;;16.30;68.60;;;;;;4921004;29;20084;-73
2023/01/08 10:24:02;;;;;;;12.50;2.30;;;16.30;68.50;;;;;;4920512;29;20044;-75
2023/01/08 10:26:31;;;;;;;12.32;1.95;;;16.30;68.60;;;;;;4903859;29;20491;-71
2023/01/08 10:29:13;;;;;;;18.67;1.42;;;16.30;68.40;;;;;;4920573;29;20044;-72
2023/01/08 10:31:51;;;;;;;9.05;1.20;;;16.30;68.20;;;;;;4919508;29;20463;-72
2023/01/08 10:34:40;;;;;;;7.95;1.48;;;16.20;68.10;;;;;;4920683;29;20047;-74
2023/01/08 10:37:35;;;;;;;8.30;1.88;;;16.20;68.00;;;;;;4920482;29;20552;-71
2023/01/08 10:40:18;;;;;;;9.27;1.45;;;16.10;68.00;;;;;;4919806;29;20062;-75
2023/01/08 10:42:45;;;;;;;10.90;1.50;;;16.00;68.20;;;;;;4919931;29;20052;-71
2023/01/08 10:45:22;;;;;;;7.25;1.25;;;16.00;68.60;;;;;;4922132;29;20372;-73
2023/01/08 10:47:51;;;;;;;5.53;1.17;;;16.00;68.80;;;;;;4939044;29;20062;-74
2023/01/08 10:50:27;;;;;;;8.38;2.55;;;16.00;68.70;;;;;;4922354;29;20056;-72
2023/01/08 10:53:00;;;;;;;4.93;1.50;;;16.00;68.50;;;;;;4937422;29;20135;-73
2023/01/08 10:55:30;;;;;;;7.93;1.48;;;16.00;68.40;;;;;;4903358;29;20062;-72
2023/01/08 10:58:01;;;;;;;7.03;1.27;;;15.90;68.40;;;;;;4920887;29;20351;-73
2023/01/08 11:00:32;;;;;;;6.80;1.73;;;15.90;68.40;;;;;;4920522;29;20064;-74
2023/01/08 11:03:01;;;;;;;7.78;1.70;;;15.90;68.70;;;;;;4919935;29;20051;-72
2023/01/08 11:05:41;;;;;;;8.05;1.80;;;15.90;69.00;;;;;;4920614;29;20063;-74
2023/01/08 11:08:25;;;;;;;9.85;1.35;;;15.90;69.30;;;;;;4920112;29;20127;-72
2023/01/08 11:10:56;;;;;;;8.10;1.45;;;15.90;69.50;;;;;;4919021;29;20048;-74
2023/01/08 11:13:22;;;;;;;7.10;1.50;;;15.90;69.60;;;;;;4919343;29;20044;-75
2023/01/08 11:16:03;;;;;;;8.52;1.92;;;15.90;70.10;;;;;;4919887;29;20142;-77
2023/01/08 11:18:29;;;;;;;6.30;1.63;;;15.90;70.50;;;;;;4919068;29;20044;-75
2023/01/08 11:21:09;;;;;;;7.55;1.05;;;15.90;70.50;;;;;;4918639;29;20052;-73
2023/01/08 11:23:34;;;;;;;8.63;2.03;;;15.90;70.30;;;;;;4919631;29;20149;-72
2023/01/08 11:26:12;;;;;;;11.68;1.85;;;15.80;70.10;;;;;;4919440;29;20040;-74
2023/01/08 11:28:53;;;;;;;11.45;1.77;;;15.80;70.40;;;;;;4902853;29;20071;-76
2023/01/08 11:31:42;;;;;;;12.82;2.20;;;15.90;70.40;;;;;;4919063;29;20111;-73
2023/01/08 11:34:25;;;;;;;9.02;2.20;;;15.80;69.00;;;;;;4919415;29;20060;-73
2023/01/08 11:37:04;;;;;;;12.50;2.67;;;15.90;67.80;;;;;;4920139;29;20048;-73
2023/01/08 11:39:32;;;;;;;17.13;2.33;;;15.80;67.40;;;;;;4919026;29;20422;-74
2023/01/08 11:42:19;;;;;;;8.00;1.88;;;15.80;67.20;;;;;;4903020;29;20127;-73
2023/01/08 11:45:03;;;;;;;11.80;2.03;;;15.80;67.10;;;;;;4919726;29;20127;-77
2023/01/08 11:48:06;;;;;;;15.35;3.08;;;15.80;67.50;;;;;;4919471;29;20054;-74
2023/01/08 11:51:12;;;;;;;13.20;2.90;;;15.80;68.10;;;;;;4900253;29;20068;-79
2023/01/08 11:53:45;;;;;;;12.15;2.38;;;15.80;67.30;;;;;;4900597;29;20057;-75
2023/01/08 11:56:29;;;;;;;8.73;1.98;;;15.80;67.90;;;;;;4883109;29;20472;-77
2023/01/08 11:59:13;;;;;;;10.90;2.03;;;15.90;67.90;;;;;;4908342;29;20052;-77
2023/01/08 12:01:58;;;;;;;;;;;16.00;68.80;;;;;;4919605;29;20056;-76
2023/01/08 12:04:40;;;;;;;11.40;2.80;;;16.10;69.60;;;;;;4917148;29;19934;-78
2023/01/08 12:07:17;;;;;;;10.48;2.05;;;16.20;69.60;;;;;;4917672;29;20499;-76
2023/01/08 12:09:51;;;;;;;11.68;2.88;;;16.30;69.80;;;;;;4918442;29;20036;-76
2023/01/08 12:12:55;;;;;;;13.05;2.08;;;16.40;70.30;;;;;;4918704;29;20055;-76
2023/01/08 12:15:39;;;;;;;11.88;2.10;;;16.40;70.50;;;;;;4915581;29;20056;-78
2023/01/08 12:18:14;;;;;;;9.02;1.90;;;16.40;70.10;;;;;;4918535;29;20079;-77
2023/01/08 12:20:49;;;;;;;9.40;1.63;;;16.50;70.30;;;;;;4918533;29;20052;-75
2023/01/08 12:23:21;;;;;;;11.57;1.95;;;16.50;70.40;;;;;;4918722;29;20052;-76
2023/01/08 12:26:12;;;;;;;11.95;1.77;;;16.50;70.50;;;;;;4918627;29;20140;-78
2023/01/08 12:29:08;;;;;;;9.48;1.77;;;16.50;70.80;;;;;;4918243;29;20459;-77
2023/01/08 12:32:02;;;;;;;6.65;1.50;;;16.50;70.90;;;;;;4918511;29;20431;-76
2023/01/08 12:34:35;;;;;;;11.07;1.75;;;16.50;71.00;;;;;;4917652;29;20048;-77
2023/01/08 12:37:45;;;;;;;13.57;2.15;;;16.40;70.80;;;;;;4916845;29;20051;-76
2023/01/08 12:40:11;;;;;;;10.18;1.30;;;16.40;70.90;;;;;;4869081;29;20136;-77
2023/01/08 12:42:40;;;;;;;11.43;2.08;;;16.30;70.30;;;;;;4864192;29;20167;-77
2023/01/08 12:45:33;;;;;;;8.52;2.20;;;16.30;70.50;;;;;;4893398;29;20478;-77
2023/01/08 12:48:20;;;;;;;11.63;2.22;;;16.30;70.30;;;;;;4921301;29;20068;-75
2023/01/08 12:50:46;;;;;;;16.08;1.75;;;16.30;69.70;;;;;;4922050;29;20108;-76
2023/01/08 12:53:25;;;;;;;7.78;2.00;;;16.20;69.20;;;;;;4921032;29;20087;-78
2023/01/08 12:55:54;;;;;;;7.68;2.00;;;16.20;68.60;;;;;;4919538;29;20170;-75
2023/01/08 12:58:39;;;;;;;6.78;1.50;;;16.20;68.10;;;;;;4921014;29;20059;-75
2023/01/08 13:01:10;;;;;;;10.07;1.92;;;16.20;66.40;;;;;;4922267;29;20371;-77
2023/01/08 13:03:39;;;;;;;5.00;2.22;;;16.20;64.90;;;;;;4917351;29;20068;-77
2023/01/08 13:06:12;;;;;;;6.80;2.22;;;16.00;63.90;;;;;;4906011;29;20056;-76
2023/01/08 13:08:47;;;;;;;8.70;1.90;;;15.90;63.00;;;;;;4918381;29;20431;-77
2023/01/08 13:11:34;;;;;;;6.28;1.48;;;15.80;62.40;;;;;;4920005;29;20075;-77
2023/01/08 13:14:01;;;;;;;8.20;1.88;;;15.60;61.70;;;;;;4923871;29;20048;-75
2023/01/08 13:16:27;;;;;;;7.05;1.88;;;15.50;61.90;;;;;;4929565;29;20040;-74
2023/01/08 13:18:59;;;;;;;7.32;2.17;;;15.40;62.80;;;;;;4920711;29;20061;-75
2023/01/08 13:21:52;;;;;;;10.43;1.50;;;15.40;63.10;;;;;;4930505;29;20044;-75
2023/01/08 13:24:36;;;;;;;8.07;2.00;;;15.40;63.50;;;;;;4924501;29;20056;-74
2023/01/08 13:27:26;;;;;;;8.48;1.75;;;15.50;63.80;;;;;;4921006;29;20055;-76
2023/01/08 13:29:52;;;;;;;9.60;2.08;;;15.50;64.30;;;;;;4921727;29;20055;-74
2023/01/08 13:32:48;;;;;;;5.47;1.90;;;15.50;64.70;;;;;;4921835;29;20039;-74
2023/01/08 13:35:14;;;;;;;5.30;1.48;;;15.50;65.00;;;;;;4920085;29;20423;-76
2023/01/08 13:37:41;;;;;;;6.85;2.20;;;15.50;65.30;;;;;;4924619;29;20087;-74
2023/01/08 13:40:38;;;;;;;6.35;1.98;;;15.60;65.50;;;;;;4924870;29;20080;-75
2023/01/08 13:43:11;;;;;;;6.32;1.80;;;15.60;65.70;;;;;;4912982;29;20063;-74
2023/01/08 13:45:37;;;;;;;7.47;1.23;;;15.60;65.90;;;;;;4922264;29;20052;-75
2023/01/08 13:48:03;;;;;;;5.22;1.55;;;15.60;66.10;;;;;;4920323;29;20120;-74
2023/01/08 13:50:29;;;;;;;12.35;1.40;;;15.60;66.30;;;;;;4919422;29;20044;-75
2023/01/08 13:53:05;;;;;;;5.28;1.42;;;15.60;66.40;;;;;;4920440;29;20343;-77
2023/01/08 13:55:35;;;;;;;7.90;1.50;;;15.60;66.50;;;;;;4918518;29;20044;-78
2023/01/08 13:58:22;;;;;;;11.80;2.28;;;15.60;66.40;;;;;;4913591;29;20055;-76
2023/01/08 14:00:52;;;;;;;4.32;1.30;;;15.70;66.50;;;;;;4909958;29;20076;-76
2023/01/08 14:03:43;;;;;;;5.82;1.58;;;15.70;66.70;;;;;;4910420;29;20052;-75
2023/01/08 14:06:24;;;;;;;7.47;1.42;;;15.60;66.60;;;;;;4911969;29;20064;-75
2023/01/08 14:08:55;;;;;;;8.35;1.75;;;15.60;66.80;;;;;;4912030;29;20052;-76
2023/01/08 14:11:29;;;;;;;10.13;2.10;;;15.60;67.00;;;;;;4912307;29;20055;-75
2023/01/08 14:13:56;;;;;;;11.52;2.15;;;15.60;67.10;;;;;;4913875;29;20051;-74
2023/01/08 14:16:22;;;;;;;6.93;1.83;;;15.60;67.30;;;;;;4911432;29;20116;-75
2023/01/08 14:18:49;;;;;;;6.40;1.30;;;15.60;67.40;;;;;;4913750;29;20052;-75
2023/01/08 14:21:20;;;;;;;4.38;1.25;;;15.60;67.60;;;;;;4911245;29;20043;-75
2023/01/08 14:23:48;;;;;;;6.00;1.30;;;15.60;67.70;;;;;;4911887;29;20056;-75
2023/01/08 14:26:29;;;;;;;6.22;1.67;;;15.60;67.70;;;;;;4912233;29;20045;-75
2023/01/08 14:28:55;;;;;;;7.65;1.70;;;15.60;67.90;;;;;;4896075;29;20080;-76
2023/01/08 14:31:24;;;;;;;5.15;1.45;;;15.60;68.00;;;;;;4910197;29;20059;-75
2023/01/08 14:33:50;;;;;;;9.77;1.48;;;15.60;68.00;;;;;;4895300;29;20044;-76
2023/01/08 14:36:17;;;;;;;9.57;1.40;;;15.60;68.10;;;;;;4910284;29;20060;-76
2023/01/08 14:38:52;;;;;;;3.70;1.25;;;15.60;68.10;;;;;;4912800;29;20467;-77
2023/01/08 14:42:41;;;;;;;7.15;1.40;;;15.50;68.20;;;;;;4896799;29;20052;-76
2023/01/08 14:44:23;;;;;;;20.10;2.00;;;15.50;68.30;;;;;;4901532;29;20119;-76
2023/01/08 14:46:55;;;;;;;12.30;1.75;;;15.50;68.10;;;;;;4919110;29;20052;-77
2023/01/08 14:49:31;;;;;;;10.98;2.13;;;15.50;68.00;;;;;;4920064;29;20044;-76
2023/01/08 14:51:58;;;;;;;12.73;2.10;;;15.50;68.10;;;;;;4920093;29;20048;-77
2023/01/08 14:54:47;;;;;;;14.15;2.65;;;15.50;68.20;;;;;;4919834;29;20359;-75
2023/01/08 14:57:13;;;;;;;15.02;2.45;;;15.50;68.20;;;;;;4919533;29;20055;-73
2023/01/08 14:59:38;;;;;;;17.10;2.58;;;15.50;69.00;;;;;;4920277;29;20059;-73
2023/01/08 15:02:16;;;;;;;24.15;2.25;;;15.50;68.50;;;;;;4919547;29;20055;-74
2023/01/08 15:04:41;;;;;;;13.82;2.50;;;15.50;68.90;;;;;;4919654;29;20052;-78
2023/01/08 15:07:26;;;;;;;16.45;2.67;;;15.50;67.40;;;;;;4920106;29;20059;-78
2023/01/08 15:10:02;;;;;;;13.93;2.25;;;15.50;65.70;;;;;;4917876;29;20084;-78
2023/01/08 15:12:31;;;;;;;12.95;1.77;;;15.40;65.70;;;;;;4919297;29;20481;-78
2023/01/08 15:15:08;;;;;;;15.52;3.08;;;15.40;66.00;;;;;;4919223;29;20471;-76
2023/01/08 15:17:34;;;;;;;17.05;3.22;;;15.40;66.20;;;;;;4886717;29;20056;-77
2023/01/08 15:20:01;;;;;;;19.73;3.45;;;15.50;66.60;;;;;;4919647;29;20055;-78
2023/01/08 15:22:32;;;;;;;18.25;2.20;;;15.60;66.70;;;;;;4918470;29;20044;-75
2023/01/08 15:24:57;;;;;;;17.83;2.20;;;15.80;66.80;;;;;;4919488;29;20405;-76
2023/01/08 15:27:27;;;;;;;18.65;3.03;;;15.80;66.80;;;;;;4917799;29;20040;-78
2023/01/08 15:29:59;;;;;;;9.52;2.10;;;16.00;67.00;;;;;;4916659;29;20067;-76
2023/01/08 15:32:35;;;;;;;17.42;1.92;;;16.00;67.10;;;;;;4918534;29;20059;-78
2023/01/08 15:35:15;;;;;;;9.07;1.45;;;16.10;67.10;;;;;;4886649;29;20379;-78
2023/01/08 15:37:41;;;;;;;14.02;2.63;;;16.10;67.30;;;;;;4917897;29;20040;-78
2023/01/08 15:40:10;;;;;;;16.67;2.17;;;16.20;67.50;;;;;;4911521;29;20040;-78
2023/01/08 15:45:27;;;;;;;11.55;2.05;;;16.20;68.00;;;;;;4918869;29;20465;-77
2023/01/08 15:47:53;;;;;;;11.00;2.03;;;16.30;68.30;;;;;;4918641;29;20055;-79
2023/01/08 15:50:19;;;;;;;14.05;1.92;;;16.30;68.60;;;;;;4901798;29;20048;-75
2023/01/08 15:52:47;;;;;;;10.52;1.90;;;16.40;70.30;;;;;;4919064;29;20040;-78
2023/01/08 15:55:19;;;;;;;12.45;2.47;;;16.40;71.80;;;;;;4901903;29;20044;-73
2023/01/08 15:57:45;;;;;;;20.08;4.05;;;16.40;72.50;;;;;;4918745;29;20363;-76
2023/01/08 16:00:15;;;;;;;10.00;1.85;;;16.40;73.10;;;;;;4918967;29;20047;-76
2023/01/08 16:02:46;;;;;;;10.55;2.00;;;16.50;71.90;;;;;;4902528;29;20158;-75
2023/01/08 16:05:12;;;;;;;11.57;2.53;;;16.40;71.50;;;;;;4918719;29;20082;-76
2023/01/08 16:07:38;;;;;;;8.23;2.15;;;16.50;71.60;;;;;;4918657;29;20070;-76
2023/01/08 16:10:05;;;;;;;11.45;1.85;;;16.50;71.80;;;;;;4919037;29;20135;-75
2023/01/08 16:12:31;;;;;;;14.25;2.42;;;16.60;71.90;;;;;;4918084;29;20367;-77
2023/01/08 16:14:56;;;;;;;8.85;1.80;;;16.70;72.00;;;;;;4918726;29;20044;-76
2023/01/08 16:17:22;;;;;;;6.25;1.40;;;16.90;71.90;;;;;;4918720;29;20044;-77
2023/01/08 16:19:48;;;;;;;14.32;2.53;;;16.90;71.80;;;;;;4917030;29;20040;-75
2023/01/08 16:22:13;;;;;;;11.25;1.95;;;17.00;71.80;;;;;;4918776;29;20333;-76
2023/01/08 16:24:39;;;;;;;7.85;1.83;;;17.00;71.70;;;;;;4918657;29;20092;-77
2023/01/08 16:27:06;;;;;;;13.70;1.65;;;17.10;71.70;;;;;;4902250;29;20056;-76
2023/01/08 16:29:32;;;;;;;10.65;1.40;;;17.10;71.70;;;;;;4918334;29;20056;-76
2023/01/08 16:31:58;;;;;;;12.75;2.15;;;17.10;71.70;;;;;;4918386;29;20048;-76
2023/01/08 16:34:24;;;;;;;11.95;2.40;;;17.10;71.70;;;;;;4918682;29;20372;-77
2023/01/08 16:36:50;;;;;;;11.38;1.80;;;17.10;71.80;;;;;;4918326;29;20478;-75
2023/01/08 16:39:16;;;;;;;9.48;1.83;;;17.00;71.80;;;;;;4918680;29;20199;-76
2023/01/08 16:41:42;;;;;;;10.27;2.00;;;17.00;71.90;;;;;;4918792;29;20048;-76
2023/01/08 16:44:20;;;;;;;16.75;2.38;;;17.00;71.90;;;;;;4917956;29;20058;-77
2023/01/08 16:46:46;;;;;;;6.78;1.73;;;17.00;71.30;;;;;;4901250;29;20058;-74
2023/01/08 16:49:12;;;;;;;7.75;1.42;;;16.90;69.60;;;;;;4917756;29;20470;-76
2023/01/08 16:51:37;;;;;;;8.05;1.23;;;16.90;68.70;;;;;;4918420;29;20140;-75
2023/01/08 16:54:03;;;;;;;14.10;2.00;;;16.80;67.40;;;;;;4918765;29;20048;-74
2023/01/08 16:56:29;;;;;;;9.82;1.60;;;16.70;66.90;;;;;;4918285;29;20479;-75
2023/01/08 16:58:55;;;;;;;6.70;1.92;;;16.60;67.40;;;;;;4918406;29;20131;-75
2023/01/08 17:01:20;;;;;;;13.77;1.85;;;16.60;68.30;;;;;;4917402;29;20044;-75
2023/01/08 17:03:46;;;;;;;16.15;2.15;;;16.60;68.10;;;;;;4917251;29;20052;-75
2023/01/08 17:06:13;;;;;;;9.85;1.60;;;16.50;68.50;;;;;;4917511;29;20060;-75
2023/01/08 17:08:40;;;;;;;13.07;1.75;;;16.50;68.80;;;;;;4918253;29;20054;-75
2023/01/08 17:11:11;;;;;;;8.88;1.67;;;16.50;68.90;;;;;;4918344;29;20060;-78
2023/01/08 17:13:36;;;;;;;12.27;1.80;;;16.50;69.00;;;;;;4917563;29;20450;-76
2023/01/08 18:16:02;;;;;;;7.47;1.58;;;15.90;69.10;;;;;;5516656;23;20056;-72
2023/01/08 18:18:28;;;;;;;5.10;1.40;;;15.90;69.00;;;;;;4904021;29;20070;-74
2023/01/08 18:20:54;;;;;;;5.35;1.05;;;15.90;69.10;;;;;;4920952;29;20051;-74
2023/01/08 18:23:20;;;;;;;5.68;1.42;;;15.80;69.00;;;;;;4903682;29;20052;-74
2023/01/08 18:25:46;;;;;;;6.25;1.38;;;15.90;69.20;;;;;;4920676;29;20048;-74
2023/01/08 18:28:12;;;;;;;6.90;1.58;;;15.80;69.20;;;;;;4920781;29;20055;-73
2023/01/08 18:30:37;;;;;;;5.85;1.48;;;15.80;69.20;;;;;;4919701;29;20052;-74
2023/01/08 18:33:03;;;;;;;4.32;1.35;;;15.80;69.30;;;;;;4920892;29;20048;-73
2023/01/08 18:35:29;;;;;;;4.03;1.23;;;15.80;69.40;;;;;;4920455;29;20436;-74
2023/01/08 18:37:55;;;;;;;4.35;1.42;;;15.80;69.50;;;;;;4920407;29;20075;-74
2023/01/08 18:40:21;;;;;;;6.38;1.35;;;15.80;69.60;;;;;;4919843;29;20052;-75
2023/01/08 18:42:47;;;;;;;5.53;1.40;;;15.70;69.80;;;;;;4920163;29;20139;-74
2023/01/08 18:45:14;;;;;;;4.70;1.40;;;15.80;70.00;;;;;;4920670;29;20463;-73
2023/01/08 18:58:03;;;;;;;8.13;2.22;;;15.30;62.00;;;;;;5056125;23;20060;-74
2023/01/08 19:00:29;;;;;;;4.07;1.40;;;15.30;63.00;;;;;;4908006;29;20048;-73
2023/01/08 19:02:55;;;;;;;8.70;1.80;;;15.30;63.60;;;;;;4913199;29;20135;-74
2023/01/08 19:05:21;;;;;;;5.80;1.77;;;15.30;64.00;;;;;;4920070;29;20059;-74
2023/01/08 19:07:47;;;;;;;7.13;1.67;;;15.30;64.50;;;;;;4919976;29;20055;-74
2023/01/08 19:10:13;;;;;;;8.35;1.65;;;15.40;65.00;;;;;;4920064;29;20052;-74
2023/01/08 19:12:39;;;;;;;7.15;1.70;;;15.40;65.30;;;;;;4926378;29;20107;-73